Time;durP1;ratioP1;P1;durP2;ratioP2;P2;SDS_P1;SDS_P2;PMS_P1;PMS_P2;Temp;Humidity;BMP_temperature;BMP_pressure;BME280_temperature;BME280_humidity;BME280_pressure;Samples;Min_cycle;Max_cycle;Signal;HPM_P1;HPM_P2
2023/09/23 00:00:40;;;;;;;;;;;;;;;21.13;65.41;99935.78;4978520;28;19914;-80
2023/09/23 00:03:32;;;;;;;;;;;;;;;21.29;66.25;99938.06;4977765;28;19917;-83
2023/09/23 00:06:25;;;;;;;;;;;;;;;21.44;65.54;99944.28;4980890;28;19918;-82
2023/09/23 00:09:17;;;;;;;;;;;;;;;21.44;65.54;99941.50;4979921;28;19914;-82
2023/09/23 00:12:08;;;;;;;;;;;;;;;21.44;65.71;99944.28;4977449;28;20395;-82
2023/09/23 00:15:06;;;;;;;;;;;;;;;21.48;65.77;99925.69;4979575;28;19918;-82
2023/09/23 00:17:58;;;;;;;;;;;;;;;21.63;65.10;99932.69;4979424;28;19914;-82
2023/09/23 00:20:50;;;;;;;;;;;;;;;21.70;64.79;99929.84;4981949;28;19914;-82
2023/09/23 00:23:40;;;;;;;;;;;;;;;21.74;64.66;99925.03;4978992;28;19918;-83
2023/09/23 00:26:32;;;;;;;;;;;;;;;21.76;64.70;99925.44;4978265;28;19922;-82
2023/09/23 00:29:24;;;;;;;;;;;;;;;21.75;64.59;99930.19;4981010;28;19914;-82
2023/09/23 00:32:16;;;;;;;;;;;;;;;21.73;64.56;99918.75;4978461;28;20291;-82
2023/09/23 00:35:09;;;;;;;;;;;;;;;21.74;64.67;99925.84;4981947;28;19918;-82
2023/09/23 00:38:02;;;;;;;;;;;;;;;21.75;64.75;99929.38;4981196;28;20299;-82
2023/09/23 00:40:54;;;;;;;;;;;;;;;21.72;64.85;99924.69;4977708;28;19914;-82
2023/09/23 00:43:46;;;;;;;;;;;;;;;21.71;65.12;99939.72;4981122;28;19914;-83
2023/09/23 00:46:39;;;;;;;;;;;;;;;21.70;64.92;99944.47;4978554;28;19918;-82
2023/09/23 00:49:33;;;;;;;1.00;0.70;;;;;;;21.67;64.99;99941.72;4977333;28;20287;-82
2023/09/23 00:52:28;;;;;;;10.63;3.28;;;;;;;21.66;65.07;99940.16;4979042;28;20046;-82
2023/09/23 00:55:25;;;;;;;9.73;2.65;;;;;;;21.65;64.83;99935.81;4976461;28;20053;-81
2023/09/23 00:58:20;;;;;;;7.65;2.95;;;;;;;21.63;64.83;99930.72;4976484;28;20053;-81
2023/09/23 01:01:16;;;;;;;4.35;2.20;;;;;;;21.63;64.67;99927.16;4991171;28;20444;-81
2023/09/23 01:04:13;;;;;;;6.45;2.03;;;;;;;21.60;64.24;99927.94;4975497;28;20050;-81
2023/09/23 01:07:09;;;;;;;9.93;2.17;;;;;;;21.57;64.17;99923.25;4990860;28;20045;-80
2023/09/23 01:10:02;;;;;;;4.93;1.60;;;;;;;21.56;64.06;99925.22;4976268;28;20046;-81
2023/09/23 01:12:54;;;;;;;2.97;1.42;;;;;;;21.57;64.00;99920.47;4980210;28;20136;-81
2023/09/23 01:15:48;;;;;;;7.03;1.60;;;;;;;21.58;63.83;99927.59;4991045;28;20408;-81
2023/09/23 01:18:49;;;;;;;5.05;1.52;;;;;;;21.45;63.36;99930.06;4976014;28;20054;-81
2023/09/23 01:21:44;;;;;;;4.47;1.30;;;;;;;20.30;64.28;99933.81;4975597;28;20393;-81
2023/09/23 01:24:38;;;;;;;4.82;1.95;;;;;;;20.21;66.72;99922.44;4976754;28;20054;-81
2023/09/23 01:27:34;;;;;;;4.60;1.10;;;;;;;20.81;66.76;99926.91;4966483;28;20046;-80
2023/09/23 01:30:29;;;;;;;6.82;1.13;;;;;;;20.43;64.34;99931.44;4991860;28;20049;-81
2023/09/23 01:33:23;;;;;;;6.97;1.10;;;;;;;20.75;64.86;99929.31;4984513;28;20058;-81
2023/09/23 01:36:19;;;;;;;6.07;1.38;;;;;;;20.91;64.44;99928.84;4980619;28;20045;-81
2023/09/23 01:39:13;;;;;;;11.98;1.10;;;;;;;20.13;59.91;99917.31;4979439;28;20046;-81
2023/09/23 01:42:07;;;;;;;7.65;2.35;;;;;;;19.85;65.33;99924.47;4983228;28;20054;-81
2023/09/23 01:45:02;;;;;;;3.40;1.00;;;;;;;20.37;60.88;99922.75;4979574;28;20049;-81
2023/09/23 01:47:57;;;;;;;3.90;1.30;;;;;;;20.65;65.12;99927.41;4991169;28;20053;-80
2023/09/23 01:50:52;;;;;;;4.78;1.33;;;;;;;20.88;65.14;99921.34;4977485;28;20412;-81
2023/09/23 01:53:46;;;;;;;8.98;1.00;;;;;;;20.74;61.14;99924.19;4979048;28;20049;-81
2023/09/23 01:56:41;;;;;;;1.98;0.80;;;;;;;20.06;63.98;99932.69;4981847;28;20730;-81
2023/09/23 01:59:33;;;;;;;;;;;;;;;20.40;63.42;99930.28;4993762;28;20054;-81
2023/09/23 02:02:28;;;;;;;8.02;1.60;;;;;;;20.37;64.87;99924.75;4992008;28;19914;-80
2023/09/23 02:05:23;;;;;;;3.58;0.90;;;;;;;20.85;64.44;99930.44;4978975;28;20041;-81
2023/09/23 02:08:18;;;;;;;5.35;1.40;;;;;;;21.02;63.89;99934.31;4980876;28;20408;-80
2023/09/23 02:11:12;;;;;;;1.50;0.82;;;;;;;21.14;63.59;99940.16;4978618;28;20049;-81
2023/09/23 02:14:07;;;;;;;3.33;0.77;;;;;;;21.25;63.04;99940.88;4980976;28;20054;-80
2023/09/23 02:17:03;;;;;;;6.65;1.02;;;;;;;21.34;62.72;99932.91;4977057;28;20058;-80
2023/09/23 02:19:57;;;;;;;2.63;0.80;;;;;;;21.37;62.65;99933.28;4981041;28;20112;-81
2023/09/23 02:22:57;;;;;;;5.75;1.52;;;;;;;20.74;63.92;99935.25;4980228;28;20053;-80
2023/09/23 02:25:52;;;;;;;2.83;0.88;;;;;;;21.07;63.35;99931.09;4982676;28;20041;-80
2023/09/23 02:28:47;;;;;;;3.55;0.82;;;;;;;21.16;62.71;99932.25;4978761;28;20066;-81
2023/09/23 02:31:42;;;;;;;5.82;1.35;;;;;;;21.31;62.35;99935.69;4997058;28;20046;-81
2023/09/23 02:34:36;;;;;;;4.85;0.85;;;;;;;21.38;61.78;99927.34;4981400;28;20134;-81
2023/09/23 02:37:31;;;;;;;5.00;0.77;;;;;;;21.39;61.72;99928.91;4977580;28;20053;-80
2023/09/23 02:40:27;;;;;;;3.30;1.20;;;;;;;21.40;61.66;99930.50;4979349;28;20053;-80
2023/09/23 02:43:22;;;;;;;2.85;1.00;;;;;;;21.42;61.50;99930.09;4981207;28;20407;-80
2023/09/23 02:46:14;;;;;;;4.53;1.20;;;;;;;21.43;61.15;99931.66;4982745;28;20049;-79
2023/09/23 02:49:09;;;;;;;6.82;1.88;;;;;;;21.42;61.36;99922.59;4978522;28;20050;-79
2023/09/23 02:52:01;;;;;;;2.80;0.98;;;;;;;21.44;61.24;99934.00;4978248;28;20388;-80
2023/09/23 02:54:56;;;;;;;5.93;1.58;;;;;;;21.43;60.87;99940.75;4981815;28;20058;-79
2023/09/23 02:57:52;;;;;;;10.30;1.00;;;;;;;21.41;60.85;99942.34;4977713;28;20057;-80
2023/09/23 03:00:57;;;;;;;1.15;0.63;;;;;;;21.42;60.56;99949.44;4991233;28;20042;-80
2023/09/23 03:03:51;;;;;;;4.88;1.00;;;;;;;21.42;60.10;99952.22;4993288;28;20407;-80
2023/09/23 03:06:53;;;;;;;2.38;1.00;;;;;;;21.42;60.28;99941.16;4991641;28;20046;-80
2023/09/23 03:09:55;;;;;;;4.38;1.05;;;;;;;21.42;60.05;99949.44;4979939;28;20054;-80
2023/09/23 03:13:01;;;;;;;5.88;1.40;;;;;;;21.40;59.81;99949.06;4992312;28;20049;-80
2023/09/23 03:15:58;;;;;;;8.60;1.92;;;;;;;21.39;60.02;99951.03;4995151;28;20531;-80
2023/09/23 03:22:08;;;;;;;5.55;1.00;;;;;;;21.38;59.68;99951.47;5001392;28;20041;-80
2023/09/23 03:25:03;;;;;;;4.53;1.25;;;;;;;21.40;59.59;99954.59;4996814;28;20045;-80
2023/09/23 03:27:58;;;;;;;4.65;0.80;;;;;;;21.37;59.39;99953.44;4996614;28;20065;-80
2023/09/23 03:31:00;;;;;;;7.03;1.30;;;;;;;21.38;59.51;99957.00;4999527;28;20075;-80
2023/09/23 03:33:56;;;;;;;4.05;1.23;;;;;;;21.38;59.30;99962.53;4979526;28;20057;-81
2023/09/23 03:36:50;;;;;;;6.68;1.30;;;;;;;21.34;59.61;99974.38;4979245;28;20049;-81
2023/09/23 03:39:45;;;;;;;8.40;1.02;;;;;;;21.12;59.35;99975.72;4978411;28;20543;-80
2023/09/23 03:42:39;;;;;;;6.55;1.23;;;;;;;20.81;61.32;99984.97;4995785;28;20042;-80
2023/09/23 03:45:43;;;;;;;7.15;0.82;;;;;;;21.04;61.09;99990.75;4979107;28;20049;-80
2023/09/23 03:48:38;;;;;;;7.00;1.40;;;;;;;21.08;59.57;99994.28;4977263;28;20046;-81
2023/09/23 03:51:32;;;;;;;6.50;1.48;;;;;;;21.18;60.41;99996.22;4979895;28;20511;-80
2023/09/23 03:54:28;;;;;;;6.78;0.98;;;;;;;21.28;59.99;99994.59;4978392;28;20057;-80
2023/09/23 03:57:22;;;;;;;6.88;1.58;;;;;;;21.30;59.85;99995.75;4994805;28;20046;-81
2023/09/23 04:00:17;;;;;;;9.48;1.27;;;;;;;21.30;59.83;100001.28;4977529;28;20046;-82
2023/09/23 04:03:11;;;;;;;14.63;1.52;;;;;;;21.30;59.53;100001.28;4976080;28;20073;-81
2023/09/23 04:06:11;;;;;;;3.50;1.20;;;;;;;21.30;59.68;100001.28;4976347;28;20054;-81
2023/09/23 04:09:06;;;;;;;3.00;1.13;;;;;;;21.28;59.03;99997.38;4976927;28;20062;-79
2023/09/23 04:12:01;;;;;;;5.00;1.10;;;;;;;21.27;59.45;99999.34;4981800;28;20050;-80
2023/09/23 04:14:55;;;;;;;13.43;1.77;;;;;;;21.27;59.05;99993.81;4977745;28;20058;-81
2023/09/23 04:17:50;;;;;;;3.97;1.00;;;;;;;21.29;58.89;99999.72;4976080;28;20050;-80
2023/09/23 04:20:45;;;;;;;8.90;0.85;;;;;;;21.29;59.21;99994.19;4977104;28;20054;-81
2023/09/23 04:23:37;;;;;;;;;;;;;;;21.29;59.04;99996.16;4978677;28;20046;-81
2023/09/23 04:26:32;;;;;;;3.10;1.13;;;;;;;21.28;59.05;99997.38;4980140;28;19914;-82
2023/09/23 04:29:29;;;;;;;5.68;1.25;;;;;;;21.26;58.89;99997.78;4979661;28;20523;-80
2023/09/23 04:32:24;;;;;;;7.57;1.40;;;;;;;21.26;59.17;99996.97;4976291;28;20050;-80
2023/09/23 04:35:19;;;;;;;6.20;1.65;;;;;;;21.26;58.72;99995.00;4978813;28;20404;-81
2023/09/23 04:38:11;;;;;;;4.85;1.58;;;;;;;21.24;58.89;100000.13;4978492;28;20049;-81
2023/09/23 04:41:06;;;;;;;8.45;1.30;;;;;;;21.24;58.70;100000.13;4980808;28;20051;-81
2023/09/23 04:44:00;;;;;;;13.60;1.92;;;;;;;21.22;58.80;100007.28;4977775;28;20049;-80
2023/09/23 04:46:55;;;;;;;3.53;1.20;;;;;;;21.19;58.82;100011.63;4975418;28;20046;-80
2023/09/23 04:49:49;;;;;;;4.32;1.13;;;;;;;21.19;58.55;100017.16;4978597;28;20050;-80
2023/09/23 04:52:49;;;;;;;8.73;2.08;;;;;;;21.19;58.71;100011.63;4982504;28;20050;-80
2023/09/23 04:55:45;;;;;;;7.28;1.15;;;;;;;21.17;58.89;100019.56;4990842;28;20048;-80
2023/09/23 04:58:39;;;;;;;11.30;1.50;;;;;;;21.17;58.81;100016.78;4999009;28;20510;-80
2023/09/23 05:01:34;;;;;;;4.47;1.00;;;;;;;21.15;58.88;100021.94;4995677;28;20045;-79
2023/09/23 05:04:29;;;;;;;4.80;1.70;;;;;;;21.16;58.57;100025.47;5001266;28;20053;-80
2023/09/23 05:07:23;;;;;;;3.70;1.10;;;;;;;21.16;58.55;100036.53;4999618;28;20049;-80
2023/09/23 05:10:18;;;;;;;5.53;1.25;;;;;;;21.14;58.72;100045.22;5000313;28;20046;-81
2023/09/23 05:13:12;;;;;;;3.40;1.17;;;;;;;21.13;58.52;100042.88;5000948;28;20073;-81
2023/09/23 05:16:08;;;;;;;5.05;2.03;;;;;;;21.15;58.69;100057.88;4998819;28;20050;-80
2023/09/23 05:19:03;;;;;;;3.67;1.00;;;;;;;21.13;58.46;100057.44;5001984;28;20053;-81
2023/09/23 05:21:58;;;;;;;3.45;1.30;;;;;;;21.13;58.53;100060.22;4988766;28;20045;-81
2023/09/23 05:24:56;;;;;;;6.68;1.40;;;;;;;21.13;58.46;100065.75;4995432;28;20065;-79
2023/09/23 05:27:53;;;;;;;3.13;0.73;;;;;;;21.12;58.35;100066.16;5001027;28;20057;-81
2023/09/23 05:30:49;;;;;;;2.35;1.15;;;;;;;21.13;58.41;100067.75;4998321;28;20068;-81
2023/09/23 05:33:44;;;;;;;5.82;0.82;;;;;;;21.09;58.56;100073.28;5002688;28;20411;-81
2023/09/23 05:36:33;;;;;;;2.22;1.25;;;;;;;21.11;58.35;100076.44;4987969;28;20050;-81
2023/09/23 05:39:26;;;;;;;5.70;1.33;;;;;;;21.12;58.53;100080.00;4992612;28;20115;-80
2023/09/23 05:42:23;;;;;;;4.38;1.55;;;;;;;21.13;58.56;100079.56;4970627;28;20037;-81
2023/09/23 05:45:20;;;;;;;3.00;1.10;;;;;;;21.15;58.44;100071.69;4984148;28;20051;-80
2023/09/23 05:48:15;;;;;;;5.30;1.92;;;;;;;21.14;58.37;100086.72;4989310;28;20045;-80
2023/09/23 05:51:10;;;;;;;12.43;1.95;;;;;;;21.14;58.28;100086.72;4986218;28;20435;-80
2023/09/23 05:54:05;;;;;;;4.93;1.83;;;;;;;21.14;58.49;100086.72;4991307;28;20054;-79
2023/09/23 05:56:59;;;;;;;7.68;2.10;;;;;;;21.12;58.54;100094.59;4999162;28;20049;-79
2023/09/23 05:59:54;;;;;;;8.80;2.90;;;;;;;21.12;58.54;100100.13;4992769;28;20058;-80
2023/09/23 06:02:48;;;;;;;7.90;2.20;;;;;;;21.13;58.81;100096.16;4980519;28;20046;-81
2023/09/23 06:05:43;;;;;;;4.55;2.22;;;;;;;21.14;59.15;100103.31;4983534;28;20053;-80
2023/09/23 06:08:38;;;;;;;5.63;2.40;;;;;;;21.13;59.18;100104.44;4981460;28;20046;-80
2023/09/23 06:11:32;;;;;;;6.05;2.22;;;;;;;21.13;59.13;100098.94;4987301;28;20554;-80
2023/09/23 06:14:27;;;;;;;5.50;2.35;;;;;;;21.12;59.35;100100.13;4977155;28;20523;-80
2023/09/23 06:17:21;;;;;;;5.72;2.30;;;;;;;21.12;59.46;100102.91;4980875;28;20050;-80
2023/09/23 06:20:16;;;;;;;5.07;2.60;;;;;;;21.12;59.61;100102.91;4978365;28;20037;-79
2023/09/23 06:23:10;;;;;;;6.43;1.60;;;;;;;21.13;59.39;100103.69;4992371;28;20038;-79
2023/09/23 06:26:08;;;;;;;6.68;1.60;;;;;;;21.17;59.63;100112.78;4999406;28;20800;-80
2023/09/23 06:29:03;;;;;;;6.40;1.80;;;;;;;21.18;59.54;100108.84;4997183;28;20049;-80
2023/09/23 06:31:55;;;;;;;7.35;1.65;;;;;;;21.26;59.26;100105.63;5002330;28;20050;-81
2023/09/23 06:34:50;;;;;;;4.82;1.27;;;;;;;21.31;58.45;100115.47;4999420;28;20053;-79
2023/09/23 06:37:44;;;;;;;4.70;1.20;;;;;;;21.31;58.73;100115.47;4996095;28;20050;-78
2023/09/23 06:40:39;;;;;;;7.30;1.70;;;;;;;21.28;58.75;100116.31;4978250;28;20057;-77
2023/09/23 06:43:29;;;;;;;19.75;1.55;;;;;;;21.51;57.84;100118.53;4985008;28;20053;-77
2023/09/23 06:46:21;;;;;;;5.35;1.25;;;;;;;21.50;57.56;100136.31;4962065;28;20412;-79
2023/09/23 06:49:13;;;;;;;6.18;1.48;;;;;;;21.57;57.81;100136.31;4960920;28;20062;-77
2023/09/23 06:52:13;;;;;;;5.55;1.10;;;;;;;21.63;58.14;100129.16;4963903;28;20046;-76
2023/09/23 06:55:03;;;;;;;4.95;1.25;;;;;;;21.66;58.03;100133.88;4958834;28;20050;-75
2023/09/23 06:57:55;;;;;;;5.90;1.10;;;;;;;21.82;58.07;100147.22;4961935;28;20054;-76
2023/09/23 07:00:50;;;;;;;5.18;0.88;;;;;;;21.91;58.07;100148.34;4977124;28;20405;-75
2023/09/23 07:03:44;;;;;;;5.45;1.40;;;;;;;22.00;57.69;100142.38;4974306;28;20050;-76
2023/09/23 07:06:34;;;;;;;2.78;0.60;;;;;;;22.13;56.54;100147.03;4969832;28;20066;-76
2023/09/23 07:09:28;;;;;;;5.25;1.15;;;;;;;22.09;56.26;100139.97;4987861;28;20526;-77
2023/09/23 07:12:17;;;;;;;5.85;1.52;;;;;;;22.12;56.58;100151.00;4982483;28;20077;-77
2023/09/23 07:15:13;;;;;;;7.43;1.48;;;;;;;22.23;55.84;100150.94;5001518;28;20077;-77
2023/09/23 07:18:05;;;;;;;6.03;1.00;;;;;;;22.38;55.25;100160.69;4989579;28;20042;-78
2023/09/23 07:21:00;;;;;;;23.80;2.63;;;;;;;22.46;54.48;100162.19;4984939;28;20530;-76
2023/09/23 07:23:54;;;;;;;4.13;0.82;;;;;;;22.68;53.18;100160.03;4980007;28;20641;-76
2023/09/23 07:26:46;;;;;;;13.43;1.27;;;;;;;22.73;53.40;100179.03;4987229;28;20045;-76
2023/09/23 07:29:41;;;;;;;7.78;1.38;;;;;;;22.88;53.40;100174.91;4999958;28;20053;-76
2023/09/23 07:32:33;;;;;;;4.28;1.20;;;;;;;23.12;52.46;100184.16;4999110;28;20120;-80
2023/09/23 07:35:31;;;;;;;7.07;1.27;;;;;;;23.14;52.40;100189.28;4997247;28;20049;-77
2023/09/23 07:38:18;;;;;;;4.82;0.93;;;;;;;23.24;52.20;100182.84;4968104;28;20045;-77
2023/09/23 07:41:13;;;;;;;3.05;0.80;;;;;;;23.35;50.77;100180.72;4978477;28;20054;-78
2023/09/23 07:44:05;;;;;;;5.13;1.20;;;;;;;23.45;50.32;100196.50;4969224;28;20066;-77
2023/09/23 07:46:55;;;;;;;4.32;1.65;;;;;;;23.37;50.41;100178.31;4990738;28;20057;-77
2023/09/23 07:49:48;;;;;;;3.70;0.95;;;;;;;23.60;49.69;100192.34;4967302;28;20532;-78
2023/09/23 07:52:40;;;;;;;24.60;2.42;;;;;;;23.63;48.70;100191.50;4977973;28;20053;-78
2023/09/23 07:55:29;;;;;;;7.47;1.00;;;;;;;23.57;48.20;100201.50;4990797;28;20078;-79
2023/09/23 07:58:21;;;;;;;5.97;1.23;;;;;;;23.79;47.93;100196.44;4962515;28;20046;-78
2023/09/23 08:01:13;;;;;;;7.50;1.15;;;;;;;23.71;48.12;100215.22;4966635;28;20054;-78
2023/09/23 08:04:03;;;;;;;5.88;1.23;;;;;;;23.76;47.72;100200.88;4994377;28;20057;-78
2023/09/23 08:06:55;;;;;;;3.63;1.08;;;;;;;23.95;47.12;100209.72;4985136;28;20049;-78
2023/09/23 08:09:42;;;;;;;3.33;0.85;;;;;;;24.06;46.06;100218.69;4995216;28;20049;-76
2023/09/23 08:12:36;;;;;;;2.85;0.95;;;;;;;24.24;45.75;100224.81;4993713;28;20521;-76
2023/09/23 08:15:23;;;;;;;2.92;0.73;;;;;;;24.27;45.54;100222.00;4983267;28;20065;-75
2023/09/23 08:18:18;;;;;;;3.22;0.65;;;;;;;24.27;44.75;100215.66;5000288;28;20049;-77
2023/09/23 08:21:12;;;;;;;2.42;0.60;;;;;;;24.33;44.68;100221.50;4997546;28;20057;-77
2023/09/23 08:24:00;;;;;;;7.35;0.77;;;;;;;24.14;44.05;100206.25;5000721;28;20049;-76
2023/09/23 08:26:52;;;;;;;4.65;1.60;;;;;;;24.15;43.80;100213.41;4998985;28;20092;-76
2023/09/23 08:29:37;;;;;;;4.65;0.60;;;;;;;24.38;44.02;100226.59;4997336;28;20057;-77
2023/09/23 08:32:22;;;;;;;2.95;0.73;;;;;;;24.81;42.94;100233.03;4986829;28;20058;-77
2023/09/23 08:35:14;;;;;;;3.25;1.17;;;;;;;25.52;41.80;100246.44;4968734;28;20057;-75
2023/09/23 08:38:04;;;;;;;7.15;1.23;;;;;;;24.87;42.49;100234.16;4973651;28;20049;-75
2023/09/23 08:40:57;;;;;;;3.20;0.93;;;;;;;24.47;44.02;100235.97;4977528;28;20046;-75
2023/09/23 08:43:55;;;;;;;2.15;0.70;;;;;;;24.51;43.26;100245.03;4977564;28;20050;-75
2023/09/23 08:46:53;;;;;;;2.90;0.52;;;;;;;24.24;43.89;100241.47;4977415;28;20050;-75
2023/09/23 08:49:48;;;;;;;3.60;0.82;;;;;;;24.60;43.35;100248.06;4977962;28;20046;-75
2023/09/23 08:52:42;;;;;;;6.72;1.52;;;;;;;25.10;42.17;100256.38;4968046;28;20050;-75
2023/09/23 08:55:33;;;;;;;2.35;0.70;;;;;;;25.24;41.21;100260.91;4994962;28;20058;-76
2023/09/23 08:58:25;;;;;;;1.27;0.40;;;;;;;25.33;41.28;100255.56;4978312;28;20042;-76
2023/09/23 09:01:19;;;;;;;1.48;0.47;;;;;;;25.62;40.12;100271.72;4982704;28;20270;-76
2023/09/23 09:04:09;;;;;;;;;;;;;;;25.47;40.41;100266.41;4983681;28;20050;-76
2023/09/23 09:07:03;;;;;;;7.68;0.90;;;;;;;25.58;40.18;100265.44;4974311;28;19923;-76
2023/09/23 09:09:53;;;;;;;;;;;;;;;25.45;40.67;100266.06;4981811;28;20041;-75
2023/09/23 09:12:47;;;;;;;4.05;0.90;;;;;;;25.05;40.53;100267.19;4985277;28;19914;-75
2023/09/23 09:15:37;;;;;;;;;;;;;;;25.13;41.18;100263.09;4973003;28;20057;-75
2023/09/23 09:18:33;;;;;;;2.17;0.80;;;;;;;25.05;42.13;100256.84;4977121;28;19914;-76
2023/09/23 09:21:27;;;;;;;5.97;0.88;;;;;;;24.87;40.81;100255.56;4984615;28;20530;-75
2023/09/23 09:24:23;;;;;;;13.18;1.35;;;;;;;24.85;41.25;100266.31;4978531;28;20112;-74
2023/09/23 09:27:17;;;;;;;2.05;0.50;;;;;;;24.98;40.42;100261.78;4975992;28;20041;-74
2023/09/23 09:30:11;;;;;;;;;;;;;;;24.99;39.39;100260.56;4976146;28;20420;-74
2023/09/23 09:33:09;;;;;;;1.45;0.50;;;;;;;24.83;40.40;100257.63;4976541;28;19922;-75
2023/09/23 09:36:02;;;;;;;2.70;1.27;;;;;;;24.99;39.92;100252.22;4974838;28;20058;-75
2023/09/23 09:39:04;;;;;;;6.38;0.88;;;;;;;25.11;40.25;100246.03;4974925;28;20058;-74
2023/09/23 09:41:59;;;;;;;4.47;0.70;;;;;;;25.02;38.54;100246.59;4972824;28;20091;-74
2023/09/23 09:44:54;;;;;;;6.28;0.47;;;;;;;24.98;40.85;100250.66;4970413;28;20049;-77
2023/09/23 09:47:53;;;;;;;5.60;0.63;;;;;;;25.08;40.23;100252.47;4972178;28;20053;-76
2023/09/23 09:50:48;;;;;;;4.97;1.00;;;;;;;24.85;41.08;100244.06;4973477;28;20046;-75
2023/09/23 09:53:43;;;;;;;4.55;0.73;;;;;;;24.91;41.21;100245.19;4975253;28;20046;-75
2023/09/23 09:56:38;;;;;;;10.85;0.82;;;;;;;24.77;40.48;100237.88;4973918;28;20054;-74
2023/09/23 09:59:33;;;;;;;6.95;0.93;;;;;;;24.83;40.13;100252.88;4973982;28;20054;-75
2023/09/23 10:02:25;;;;;;;8.27;0.80;;;;;;;24.93;40.13;100240.00;4976664;28;20539;-74
2023/09/23 10:05:23;;;;;;;4.20;1.20;;;;;;;24.97;40.01;100235.16;4973476;28;20046;-75
2023/09/23 10:08:20;;;;;;;3.13;1.30;;;;;;;24.87;40.26;100234.16;4978920;28;20050;-75
2023/09/23 10:11:12;;;;;;;4.00;0.82;;;;;;;24.69;39.83;100231.63;4976933;28;20054;-75
2023/09/23 10:14:15;;;;;;;7.25;0.90;;;;;;;24.82;40.04;100231.81;4972382;28;20523;-76
2023/09/23 10:17:11;;;;;;;5.03;1.05;;;;;;;24.79;40.53;100227.09;4973561;28;20046;-75
2023/09/23 10:20:00;;;;;;;7.93;1.00;;;;;;;24.65;41.14;100242.03;4977124;28;20534;-75
2023/09/23 10:22:53;;;;;;;4.05;1.33;;;;;;;24.44;40.87;100239.56;4981344;28;20058;-75
2023/09/23 10:25:50;;;;;;;8.93;1.05;;;;;;;24.64;41.36;100243.22;4978789;28;20042;-74
2023/09/23 10:28:56;;;;;;;5.88;1.10;;;;;;;24.69;40.06;100237.19;4976437;28;20053;-75
2023/09/23 10:31:50;;;;;;;4.00;0.70;;;;;;;24.83;40.07;100232.59;4977978;28;20045;-74
2023/09/23 10:34:57;;;;;;;2.85;0.95;;;;;;;25.39;39.35;100231.59;4965805;28;20062;-75
2023/09/23 10:37:52;;;;;;;6.53;0.63;;;;;;;27.58;35.48;100235.97;4979474;28;20050;-74
2023/09/23 10:40:50;;;;;;;3.15;0.93;;;;;;;34.75;24.03;100249.44;4972102;28;20477;-75
2023/09/23 10:43:42;;;;;;;4.47;0.85;;;;;;;38.17;19.91;100266.25;4979813;28;20054;-75
2023/09/23 10:46:36;;;;;;;2.83;0.80;;;;;;;42.58;15.73;100270.94;4978179;28;20053;-74
2023/09/23 10:49:31;;;;;;;3.55;0.63;;;;;;;45.25;13.41;100272.25;4974576;28;20076;-75
2023/09/23 10:52:26;;;;;;;5.55;0.82;;;;;;;46.23;12.98;100271.72;4982184;28;20053;-74
2023/09/23 10:55:20;;;;;;;3.00;0.75;;;;;;;44.29;13.88;100269.75;4976469;28;20058;-75
2023/09/23 10:58:12;;;;;;;6.80;0.98;;;;;;;44.61;13.40;100275.91;4970634;28;20050;-75
2023/09/23 11:01:06;;;;;;;3.80;0.88;;;;;;;45.19;13.00;100274.53;4977600;28;20101;-75
2023/09/23 11:04:02;;;;;;;16.20;1.15;;;;;;;44.55;13.18;100269.53;4975115;28;20041;-75
2023/09/23 11:06:56;;;;;;;1.60;0.60;;;;;;;44.89;12.81;100269.41;4979074;28;20473;-75
2023/09/23 11:09:51;;;;;;;5.38;0.80;;;;;;;45.85;12.05;100271.69;4973256;28;20046;-76
2023/09/23 11:12:46;;;;;;;2.50;0.50;;;;;;;44.73;12.45;100276.38;4979265;28;20412;-75
2023/09/23 11:15:38;;;;;;;2.85;0.80;;;;;;;45.65;11.81;100281.22;4978398;28;20061;-76
2023/09/23 11:18:35;;;;;;;2.67;0.73;;;;;;;46.89;11.08;100278.53;4974898;28;20123;-76
2023/09/23 11:21:29;;;;;;;2.13;0.40;;;;;;;46.65;11.63;100283.56;4978403;28;20049;-76
2023/09/23 11:24:27;;;;;;;5.32;1.02;;;;;;;45.19;12.54;100265.91;4976050;28;20069;-76
2023/09/23 11:27:21;;;;;;;5.22;0.80;;;;;;;46.00;12.07;100268.06;4979318;28;20054;-76
2023/09/23 11:30:13;;;;;;;3.47;0.70;;;;;;;45.47;12.41;100273.69;4976311;28;20053;-76
2023/09/23 11:33:09;;;;;;;4.93;0.90;;;;;;;47.17;11.00;100276.13;4975925;28;20054;-76
2023/09/23 11:36:01;;;;;;;3.03;0.73;;;;;;;47.79;10.62;100279.47;4977558;28;20066;-76
2023/09/23 11:38:56;;;;;;;4.72;0.95;;;;;;;47.46;11.12;100272.94;4975996;28;20050;-76
2023/09/23 11:41:57;;;;;;;2.25;1.10;;;;;;;43.07;13.72;100253.31;4977580;28;20038;-76
2023/09/23 11:44:51;;;;;;;4.03;0.45;;;;;;;43.83;13.38;100257.84;4977472;28;20436;-76
2023/09/23 11:47:46;;;;;;;2.78;0.77;;;;;;;45.03;12.46;100258.56;4973676;28;20045;-75
2023/09/23 11:50:42;;;;;;;1.92;0.60;;;;;;;45.19;12.74;100263.06;4968885;28;20118;-76
2023/09/23 11:53:36;;;;;;;1.48;0.55;;;;;;;44.23;12.57;100254.78;4971827;28;20046;-76
2023/09/23 11:56:31;;;;;;;1.60;0.43;;;;;;;44.56;12.48;100250.22;4979391;28;20049;-75
2023/09/23 11:59:23;;;;;;;2.78;0.90;;;;;;;42.88;13.91;100249.81;4977771;28;20038;-76
2023/09/23 12:02:18;;;;;;;6.85;0.90;;;;;;;43.35;13.17;100250.63;4974579;28;20510;-75
2023/09/23 12:05:12;;;;;;;1.42;0.55;;;;;;;43.20;13.69;100246.81;4972146;28;20050;-76
2023/09/23 12:08:04;;;;;;;3.40;0.80;;;;;;;43.70;12.37;100237.06;4960134;28;20538;-76
2023/09/23 12:10:56;;;;;;;4.88;0.80;;;;;;;44.45;12.85;100247.69;4976114;28;20097;-84
2023/09/23 12:13:48;;;;;;;4.13;0.90;;;;;;;45.12;12.25;100258.03;4980896;28;20046;-81
2023/09/23 12:16:46;;;;;;;2.60;0.65;;;;;;;44.71;12.55;100250.34;4974703;28;20045;-79
2023/09/23 12:19:38;;;;;;;4.30;1.05;;;;;;;42.66;13.70;100246.09;4978374;28;20050;-83
2023/09/23 12:22:33;;;;;;;5.97;1.10;;;;;;;43.75;13.33;100245.53;4977839;28;20049;-81
2023/09/23 12:25:27;;;;;;;3.88;0.80;;;;;;;44.84;12.61;100255.97;4975333;28;20062;-81
2023/09/23 12:28:22;;;;;;;2.47;0.75;;;;;;;43.79;13.35;100245.19;4977527;28;20046;-81
2023/09/23 12:31:15;;;;;;;3.15;1.25;;;;;;;44.44;13.04;100251.88;4984453;28;20049;-80
2023/09/23 12:34:07;;;;;;;1.77;0.80;;;;;;;43.10;13.98;100242.88;4978616;28;20046;-79
2023/09/23 12:37:02;;;;;;;6.22;1.25;;;;;;;43.79;13.90;100248.81;4977026;28;20066;-79
2023/09/23 12:40:00;;;;;;;2.92;0.40;;;;;;;42.02;15.10;100234.00;4971652;28;20050;-81
2023/09/23 12:42:53;;;;;;;3.30;0.40;;;;;;;43.49;13.52;100237.81;4978280;28;20048;-81
2023/09/23 12:45:48;;;;;;;2.65;0.63;;;;;;;40.01;15.74;100232.91;4976124;28;20045;-81
2023/09/23 12:48:43;;;;;;;3.80;0.65;;;;;;;41.30;15.46;100235.09;4979553;28;20050;-81
2023/09/23 12:51:38;;;;;;;6.05;0.75;;;;;;;41.99;14.52;100237.94;4977272;28;20046;-84
2023/09/23 12:54:32;;;;;;;3.30;1.10;;;;;;;40.12;15.95;100237.72;4967830;28;20058;-82
2023/09/23 12:57:24;;;;;;;2.40;0.70;;;;;;;40.56;15.24;100243.00;4977735;28;20046;-81
2023/09/23 13:00:20;;;;;;;1.17;0.57;;;;;;;41.46;15.19;100233.31;4976465;28;20062;-82
2023/09/23 13:03:12;;;;;;;1.08;0.35;;;;;;;40.00;16.88;100234.19;4980578;28;20289;-80
2023/09/23 13:06:07;;;;;;;4.07;0.57;;;;;;;39.75;16.84;100221.94;4970591;28;20535;-78
2023/09/23 13:09:02;;;;;;;3.40;0.50;;;;;;;39.43;17.70;100226.59;4972077;28;20158;-79
2023/09/23 13:11:57;;;;;;;1.85;0.68;;;;;;;39.40;16.99;100233.34;4971956;28;20065;-79
2023/09/23 13:14:56;;;;;;;3.58;0.35;;;;;;;39.23;17.33;100232.63;4973098;28;20050;-80
2023/09/23 13:17:46;;;;;;;11.15;1.38;;;;;;;38.11;19.24;100223.66;4975412;28;20074;-80
2023/09/23 13:20:40;;;;;;;4.25;0.75;;;;;;;36.61;20.88;100226.06;4971523;28;20050;-79
2023/09/23 13:23:32;;;;;;;646.42;141.60;;;;;;;37.42;20.24;100225.38;4968934;28;20042;-79
2023/09/23 13:26:26;;;;;;;164.20;33.80;;;;;;;35.21;21.44;100221.25;4982284;28;20035;-79
2023/09/23 13:29:18;;;;;;;67.70;15.02;;;;;;;36.58;19.55;100224.22;4979765;28;20043;-80
2023/09/23 13:32:10;;;;;;;13.27;4.43;;;;;;;36.09;18.63;100223.38;4978361;28;20038;-79
2023/09/23 13:35:05;;;;;;;12.93;2.75;;;;;;;36.69;20.82;100215.81;4980393;28;20054;-81
2023/09/23 13:37:55;;;;;;;4.78;0.95;;;;;;;35.58;21.58;100219.31;4980040;28;20049;-80
2023/09/23 13:40:51;;;;;;;2.83;0.82;;;;;;;35.41;21.84;100229.69;4977993;28;20049;-79